BBC Switzerland — DGFL2 — position and weather

sailwx.info

Track history (hours):
 
Tides and Currents Weather Stations Pressure Air Temp Water Temp Dewpoint Dewpoint Depression Visibility Wind Speed Wind Dir Waves Ship Positions

BBC Switzerland

Last reported at 2017-Jul-19 11:18 UTC. Time now 2017-Jul-25 06:45 UTC.
Position S 29°57' E 031°08'.

Length 119 m; draft 7 m.

Type: Cargo ship. MMSI: 218629000.

Date/timePositionNaut miles runAvg speedWind from/ knotsBaromVisibWave heightAir tempDewpointWater temp
2017-Jul-19 11:18S 29°57' E 031°08'413.5
2017-Jul-19 11:00S 29°54' E 031°08'4 8.5
2017-Jul-19 10:30S 29°52' E 031°03'1 2.5
2017-Jul-19 09:55S 29°53' E 031°02'0 0.0
2017-Jul-19 09:28S 29°53' E 031°02'0 0.0
2017-Jul-19 08:58S 29°53' E 031°02'0 0.0
2017-Jul-19 08:28S 29°53' E 031°02'0 0.0
2017-Jul-19 07:58S 29°53' E 031°02'0 0.0
2017-Jul-19 07:28S 29°53' E 031°02'0 0.0
2017-Jul-19 06:58S 29°53' E 031°02'0 0.0
2017-Jul-19 06:28S 29°53' E 031°02'0 0.0
2017-Jul-19 05:58S 29°53' E 031°02'0 0.0
2017-Jul-19 05:28S 29°53' E 031°02'0 0.0
2017-Jul-19 04:58S 29°53' E 031°02'0 0.0
2017-Jul-19 04:28S 29°53' E 031°02'0 0.0
2017-Jul-19 03:58S 29°53' E 031°02'0 0.0
2017-Jul-19 03:28S 29°53' E 031°02'0 0.0
2017-Jul-19 02:58S 29°53' E 031°02'0 0.0
2017-Jul-19 02:28S 29°53' E 031°02'0 0.0
2017-Jul-19 01:58S 29°53' E 031°02'0 0.0
2017-Jul-19 01:28S 29°53' E 031°02'0 0.0
2017-Jul-19 00:58S 29°53' E 031°02'0 0.0
2017-Jul-19 00:28S 29°53' E 031°02'0 0.0
2017-Jul-18 23:58S 29°53' E 031°02'0 0.0
2017-Jul-18 23:30S 29°53' E 031°02'0 0.0
2017-Jul-18 23:00S 29°53' E 031°02'0 0.0
2017-Jul-18 22:30S 29°53' E 031°02'0 0.0
2017-Jul-18 22:00S 29°53' E 031°02'0 0.0
2017-Jul-18 21:30S 29°53' E 031°02'0 0.0
2017-Jul-18 21:00S 29°53' E 031°02'0 0.0
2017-Jul-18 20:30S 29°53' E 031°02'0 0.0
2017-Jul-18 20:00S 29°53' E 031°02'0 0.0
2017-Jul-18 19:30S 29°53' E 031°02'0 0.0
2017-Jul-18 19:00S 29°53' E 031°02'0 0.0
2017-Jul-18 18:30S 29°53' E 031°02'0 0.0
2017-Jul-18 18:00S 29°53' E 031°02'0 0.0
2017-Jul-18 17:30S 29°53' E 031°02'0 0.0
2017-Jul-18 17:00S 29°53' E 031°02'0 0.0
2017-Jul-18 16:30S 29°53' E 031°02'0 0.0
2017-Jul-18 16:00S 29°53' E 031°02'0 0.0
2017-Jul-18 15:30S 29°53' E 031°02'0 0.0
2017-Jul-18 15:00S 29°53' E 031°02'0 0.0
2017-Jul-18 14:00S 29°53' E 031°02'0 0.0
2017-Jul-18 13:30S 29°53' E 031°02'0 0.0
2017-Jul-18 13:00S 29°53' E 031°02'0 0.0
2017-Jul-18 12:30S 29°53' E 031°02'0 0.0
2017-Jul-18 12:00S 29°53' E 031°02'0 0.0
2017-Jul-18 11:30S 29°53' E 031°02'0 0.0
2017-Jul-18 11:00S 29°53' E 031°02'0 0.0
2017-Jul-18 10:30S 29°53' E 031°02'0 0.2
2017-Jul-18 10:00S 29°53' E 031°02'3 6.9
2017-Jul-18 09:30S 29°50' E 031°05'2 3.4
2017-Jul-18 09:00S 29°49' E 031°06'2 4.8
2017-Jul-18 08:30S 29°49' E 031°09'612.7
2017-Jul-18 08:00S 29°48' E 031°16'713.1
2017-Jul-18 07:30S 29°46' E 031°24'713.1
2017-Jul-18 07:00S 29°45' E 031°31'713.1
2017-Jul-18 06:30S 29°43' E 031°38'713.8
2017-Jul-18 06:00S 29°41' E 031°46'714.0
2017-Jul-18 05:30S 29°37' E 031°53'713.8
2017-Jul-18 05:00S 29°32' E 031°58'713.3
2017-Jul-18 04:30S 29°28' E 032°04'714.5
2017-Jul-18 04:00S 29°22' E 032°09'714.5
2017-Jul-18 03:30S 29°17' E 032°14'  
Track history (hours):
 
Tides and Currents Weather Stations Pressure Air Temp Water Temp Dewpoint Dewpoint Depression Visibility Wind Speed Wind Dir Waves Ship Positions

BBC Switzerland

Last reported at 2017-Jul-19 11:18 UTC. Time now 2017-Jul-25 06:45 UTC.
Position S 29°57' E 031°08'.

Length 119 m; draft 7 m.

Type: Cargo ship. MMSI: 218629000.

Date/timePositionNaut miles runAvg speedWind from/ knotsBaromVisibWave heightAir tempDewpointWater temp
2017-Jul-19 11:18S 29°57' E 031°08'413.5
2017-Jul-19 11:00S 29°54' E 031°08'4 8.5
2017-Jul-19 10:30S 29°52' E 031°03'1 2.5
2017-Jul-19 09:55S 29°53' E 031°02'0 0.0
2017-Jul-19 09:28S 29°53' E 031°02'0 0.0
2017-Jul-19 08:58S 29°53' E 031°02'0 0.0
2017-Jul-19 08:28S 29°53' E 031°02'0 0.0
2017-Jul-19 07:58S 29°53' E 031°02'0 0.0
2017-Jul-19 07:28S 29°53' E 031°02'0 0.0
2017-Jul-19 06:58S 29°53' E 031°02'0 0.0
2017-Jul-19 06:28S 29°53' E 031°02'0 0.0
2017-Jul-19 05:58S 29°53' E 031°02'0 0.0
2017-Jul-19 05:28S 29°53' E 031°02'0 0.0
2017-Jul-19 04:58S 29°53' E 031°02'0 0.0
2017-Jul-19 04:28S 29°53' E 031°02'0 0.0
2017-Jul-19 03:58S 29°53' E 031°02'0 0.0
2017-Jul-19 03:28S 29°53' E 031°02'0 0.0
2017-Jul-19 02:58S 29°53' E 031°02'0 0.0
2017-Jul-19 02:28S 29°53' E 031°02'0 0.0
2017-Jul-19 01:58S 29°53' E 031°02'0 0.0
2017-Jul-19 01:28S 29°53' E 031°02'0 0.0
2017-Jul-19 00:58S 29°53' E 031°02'0 0.0
2017-Jul-19 00:28S 29°53' E 031°02'0 0.0
2017-Jul-18 23:58S 29°53' E 031°02'0 0.0
2017-Jul-18 23:30S 29°53' E 031°02'0 0.0
2017-Jul-18 23:00S 29°53' E 031°02'0 0.0
2017-Jul-18 22:30S 29°53' E 031°02'0 0.0
2017-Jul-18 22:00S 29°53' E 031°02'0 0.0
2017-Jul-18 21:30S 29°53' E 031°02'0 0.0
2017-Jul-18 21:00S 29°53' E 031°02'0 0.0
2017-Jul-18 20:30S 29°53' E 031°02'0 0.0
2017-Jul-18 20:00S 29°53' E 031°02'0 0.0
2017-Jul-18 19:30S 29°53' E 031°02'0 0.0
2017-Jul-18 19:00S 29°53' E 031°02'0 0.0
2017-Jul-18 18:30S 29°53' E 031°02'0 0.0
2017-Jul-18 18:00S 29°53' E 031°02'0 0.0
2017-Jul-18 17:30S 29°53' E 031°02'0 0.0
2017-Jul-18 17:00S 29°53' E 031°02'0 0.0
2017-Jul-18 16:30S 29°53' E 031°02'0 0.0
2017-Jul-18 16:00S 29°53' E 031°02'0 0.0
2017-Jul-18 15:30S 29°53' E 031°02'0 0.0
2017-Jul-18 15:00S 29°53' E 031°02'0 0.0
2017-Jul-18 14:00S 29°53' E 031°02'0 0.0
2017-Jul-18 13:30S 29°53' E 031°02'0 0.0
2017-Jul-18 13:00S 29°53' E 031°02'0 0.0
2017-Jul-18 12:30S 29°53' E 031°02'0 0.0
2017-Jul-18 12:00S 29°53' E 031°02'0 0.0
2017-Jul-18 11:30S 29°53' E 031°02'0 0.0
2017-Jul-18 11:00S 29°53' E 031°02'0 0.0
2017-Jul-18 10:30S 29°53' E 031°02'0 0.2
2017-Jul-18 10:00S 29°53' E 031°02'3 6.9
2017-Jul-18 09:30S 29°50' E 031°05'2 3.4
2017-Jul-18 09:00S 29°49' E 031°06'2 4.8
2017-Jul-18 08:30S 29°49' E 031°09'612.7
2017-Jul-18 08:00S 29°48' E 031°16'713.1
2017-Jul-18 07:30S 29°46' E 031°24'713.1
2017-Jul-18 07:00S 29°45' E 031°31'713.1
2017-Jul-18 06:30S 29°43' E 031°38'713.8
2017-Jul-18 06:00S 29°41' E 031°46'714.0
2017-Jul-18 05:30S 29°37' E 031°53'713.8
2017-Jul-18 05:00S 29°32' E 031°58'713.3
2017-Jul-18 04:30S 29°28' E 032°04'714.5
2017-Jul-18 04:00S 29°22' E 032°09'714.5
2017-Jul-18 03:30S 29°17' E 032°14'  

Dump ship's entire track history